| time (UTC) | temp F | wind direction | speed MPH | gust MPH | rain 1hr in | rain 24hr in | rain mn in | humidity % | barometer mb |
| 20260901063226 | 63 | 138 | 0.0 | 1.0 | 0.00 | 0.03 | 0.00 | 70 | 1006.0 |
| 20260901062156 | 62 | 141 | 0.0 | 1.0 | 0.00 | 0.03 | 0.00 | 68 | 1006.0 |
| 20260901061215 | 62 | 140 | 0.0 | 3.0 | 0.00 | 0.03 | 0.00 | 71 | 1005.8 |
| 20260901060227 | 61 | 113 | 1.0 | 5.0 | 0.00 | 0.03 | 0.00 | 72 | 1005.5 |
| 20260901055156 | 61 | 102 | 2.0 | 5.0 | 0.00 | 0.03 | 0.03 | 74 | 1005.4 |
| 20260901054122 | 61 | 108 | 1.0 | 4.0 | 0.00 | 0.03 | 0.03 | 76 | 1005.4 |
| 20260901053146 | 61 | 102 | 1.0 | 4.0 | 0.00 | 0.03 | 0.03 | 76 | 1005.6 |
| 20260901052210 | 60 | 82 | 1.0 | 4.0 | 0.00 | 0.03 | 0.03 | 76 | 1005.7 |
| 20260901051224 | 60 | 89 | 1.0 | 4.0 | 0.00 | 0.03 | 0.03 | 78 | 1005.9 |
| 20260901050213 | 60 | 89 | 2.0 | 5.0 | 0.00 | 0.03 | 0.03 | 78 | 1006.3 |
| 20260901045140 | 61 | 91 | 1.0 | 5.0 | 0.00 | 0.03 | 0.03 | 78 | 1006.9 |
| 20260901044136 | 62 | 218 | 0.0 | 3.0 | 0.00 | 0.02 | 0.02 | 74 | 1007.1 |
| 20260901042040 | 62 | 162 | 0.0 | 3.0 | 0.00 | 0.02 | 0.02 | 70 | 1006.5 |
| 20260901035858 | 63 | 87 | 2.0 | 6.0 | 0.00 | 0.02 | 0.02 | 66 | 1005.6 |
| 20260901034857 | 63 | 58 | 2.0 | 6.0 | 0.00 | 0.02 | 0.02 | 68 | 1005.8 |
| 20260901033856 | 63 | 104 | 1.0 | 4.0 | 0.00 | 0.02 | 0.02 | 68 | 1005.8 |
| 20260901032915 | 63 | 80 | 2.0 | 7.0 | 0.00 | 0.02 | 0.02 | 69 | 1005.7 |
| 20260901031922 | 63 | 98 | 2.0 | 9.0 | 0.00 | 0.02 | 0.02 | 70 | 1005.9 |
| 20260901030918 | 63 | 153 | 2.0 | 9.0 | 0.00 | 0.02 | 0.02 | 71 | 1005.9 |
| 20260901025914 | 63 | 193 | 0.0 | 4.0 | 0.00 | 0.02 | 0.02 | 72 | 1005.9 |
| 20260901024905 | 63 | 130 | 1.0 | 4.0 | 0.00 | 0.02 | 0.02 | 74 | 1005.5 |
| 20260901022807 | 63 | 49 | 0.0 | 3.0 | 0.00 | 0.02 | 0.02 | 74 | 1004.9 |
| 20260901020742 | 63 | 50 | 1.0 | 9.0 | 0.00 | 0.02 | 0.02 | 76 | 1004.6 |
| 20260901013523 | 62 | 48 | 0.0 | 5.0 | 0.00 | 0.02 | 0.02 | 78 | 1004.5 |
| 20260831234119 | 72 | 131 | 5.0 | 17.0 | 0.00 | 0.00 | 0.00 | 48 | 1002.2 |
| 20260831231916 | 71 | 131 | 2.0 | 11.0 | 0.00 | 0.00 | 0.00 | 47 | 1001.9 |
| 20260831230845 | 71 | 132 | 4.0 | 11.0 | 0.00 | 0.00 | 0.00 | 48 | 1001.9 |
| 20260831225848 | 72 | 108 | 4.0 | 10.0 | 0.00 | 0.00 | 0.00 | 48 | 1002.0 |
| 20260831224855 | 73 | 84 | 5.0 | 14.0 | 0.00 | 0.00 | 0.00 | 45 | 1002.0 |
| 20260831223840 | 75 | 86 | 6.0 | 14.0 | 0.00 | 0.00 | 0.00 | 41 | 1002.3 |
| 20260831221725 | 82 | 55 | 0.0 | 7.0 | 0.00 | 0.00 | 0.00 | 33 | 1001.4 |
| 20260831215639 | 81 | 68 | 0.0 | 2.0 | 0.00 | 0.00 | 0.00 | 34 | 1001.5 |
| 20260831213518 | 81 | 300 | 1.0 | 12.0 | 0.00 | 0.00 | 0.00 | 33 | 1001.5 |
| 20260831212501 | 83 | 42 | 2.0 | 9.0 | 0.00 | 0.00 | 0.00 | 32 | 1001.6 |
| 20260831210351 | 82 | 160 | 2.0 | 6.0 | 0.00 | 0.00 | 0.00 | 33 | 1001.9 |
| 20260831205339 | 84 | 211 | 2.0 | 9.0 | 0.00 | 0.00 | 0.00 | 29 | 1002.0 |
| 20260831204305 | 86 | 205 | 1.0 | 12.0 | 0.00 | 0.00 | 0.00 | 28 | 1001.8 |
| 20260831203316 | 84 | 148 | 3.0 | 12.0 | 0.00 | 0.00 | 0.00 | 29 | 1002.2 |
| 20260831202306 | 86 | 136 | 2.0 | 5.0 | 0.00 | 0.00 | 0.00 | 28 | 1002.1 |
| 20260831201316 | 88 | 86 | 1.0 | 8.0 | 0.00 | 0.00 | 0.00 | 27 | 1002.1 |
| 20260831200330 | 87 | 248 | 1.0 | 8.0 | 0.00 | 0.00 | 0.00 | 27 | 1002.2 |
| 20260831194225 | 86 | 229 | 0.0 | 7.0 | 0.00 | 0.00 | 0.00 | 28 | 1002.6 |
| 20260831192123 | 84 | 289 | 1.0 | 6.0 | 0.00 | 0.00 | 0.00 | 30 | 1003.0 |
| 20260831191129 | 82 | 256 | 1.0 | 7.0 | 0.00 | 0.00 | 0.00 | 30 | 1003.1 |
| 20260831190129 | 82 | 279 | 1.0 | 7.0 | 0.00 | 0.00 | 0.00 | 31 | 1003.3 |
| 20260831185148 | 82 | 294 | 1.0 | 5.0 | 0.00 | 0.00 | 0.00 | 31 | 1003.4 |
| 20260831184208 | 83 | 229 | 0.0 | 5.0 | 0.00 | 0.00 | 0.00 | 30 | 1003.5 |
| 20260831183146 | 82 | 338 | 1.0 | 7.0 | 0.00 | 0.00 | 0.00 | 30 | 1003.5 |
| 20260831182201 | 83 | 311 | 1.0 | 7.0 | 0.00 | 0.00 | 0.00 | 30 | 1003.8 |
| 20260831181220 | 83 | 284 | 0.0 | 6.0 | 0.00 | 0.00 | 0.00 | 30 | 1004.1 |
| 20260831175059 | 82 | 308 | 1.0 | 8.0 | 0.00 | 0.00 | 0.00 | 32 | 1004.5 |
| 20260831174031 | 80 | 313 | 2.0 | 11.0 | 0.00 | 0.00 | 0.00 | 34 | 1004.5 |
| 20260831173033 | 79 | 280 | 2.0 | 11.0 | 0.00 | 0.00 | 0.00 | 34 | 1004.6 |
| 20260831172058 | 80 | 46 | 0.0 | 4.0 | 0.00 | 0.00 | 0.00 | 32 | 1004.6 |
| 20260831171025 | 81 | 221 | 0.0 | 5.0 | 0.00 | 0.00 | 0.00 | 33 | 1004.7 |
| 20260831170031 | 79 | 333 | 1.0 | 6.0 | 0.00 | 0.00 | 0.00 | 34 | 1004.8 |
| 20260831165001 | 79 | 278 | 0.0 | 11.0 | 0.00 | 0.00 | 0.00 | 34 | 1004.9 |
| 20260831163945 | 78 | 76 | 2.0 | 11.0 | 0.00 | 0.00 | 0.00 | 34 | 1004.8 |
| 20260831161720 | 77 | 12 | 0.0 | 5.0 | 0.00 | 0.00 | 0.00 | 38 | 1004.8 |
| 20260831160724 | 74 | 331 | 0.0 | 5.0 | 0.00 | 0.00 | 0.00 | 40 | 1004.9 |
| 20260831153316 | 73 | 301 | 0.0 | 3.0 | 0.00 | 0.00 | 0.00 | 44 | 1005.2 |
| 20260831152256 | 73 | 82 | 0.0 | 4.0 | 0.00 | 0.00 | 0.00 | 46 | 1005.5 |
| 20260831151241 | 69 | 30 | 0.0 | 3.0 | 0.00 | 0.00 | 0.00 | 50 | 1005.6 |
| 20260831150227 | 68 | 86 | 0.0 | 4.0 | 0.00 | 0.00 | 0.00 | 51 | 1005.8 |
| 20260831145226 | 66 | 302 | 0.0 | 1.0 | 0.00 | 0.00 | 0.00 | 54 | 1005.8 |
| 20260831142021 | 66 | 310 | 0.0 | 5.0 | 0.00 | 0.00 | 0.00 | 57 | 1006.1 |
| 20260831135939 | 65 | 75 | 0.0 | 2.0 | 0.00 | 0.00 | 0.00 | 58 | 1006.0 |
| 20260831133822 | 64 | 340 | 0.0 | 4.0 | 0.00 | 0.00 | 0.00 | 57 | 1006.2 |
| 20260831110744 | 62 | 334 | 0.0 | 0.0 | 0.00 | 0.00 | 0.00 | 57 | 1004.7 |
| 20260831104622 | 63 | 68 | 0.0 | 0.0 | 0.00 | 0.00 | 0.00 | 57 | 1004.9 |
| 20260831103624 | 63 | 56 | 0.0 | 0.0 | 0.00 | 0.00 | 0.00 | 57 | 1004.9 |
| 20260831102638 | 63 | 115 | 0.0 | 9.0 | 0.00 | 0.00 | 0.00 | 57 | 1004.8 |
| 20260831101702 | 63 | 324 | 1.0 | 9.0 | 0.00 | 0.00 | 0.00 | 57 | 1004.8 |
| 20260831100704 | 63 | 290 | 1.0 | 8.0 | 0.00 | 0.00 | 0.00 | 57 | 1004.7 |
| 20260831094629 | 63 | 339 | 1.0 | 8.0 | 0.00 | 0.00 | 0.00 | 56 | 1004.3 |
| 20260831093628 | 64 | 328 | 1.0 | 6.0 | 0.00 | 0.00 | 0.00 | 56 | 1004.3 |
| 20260831092632 | 64 | 307 | 0.0 | 6.0 | 0.00 | 0.00 | 0.00 | 55 | 1004.3 |
| 20260831090540 | 65 | 53 | 0.0 | 1.0 | 0.00 | 0.00 | 0.00 | 54 | 1004.3 |
| 20260831085520 | 65 | 312 | 0.0 | 2.0 | 0.00 | 0.00 | 0.00 | 53 | 1004.4 |
| 20260831083349 | 65 | 74 | 0.0 | 2.0 | 0.00 | 0.00 | 0.00 | 52 | 1004.3 |
| 20260831082319 | 66 | 238 | 0.0 | 0.0 | 0.00 | 0.00 | 0.00 | 52 | 1004.3 |
| 20260831081316 | 66 | 310 | 0.0 | 8.0 | 0.00 | 0.00 | 0.00 | 52 | 1004.5 |
| 20260831080302 | 66 | 339 | 0.0 | 8.0 | 0.00 | 0.00 | 0.00 | 51 | 1004.6 |
| 20260831075321 | 67 | 271 | 0.0 | 3.0 | 0.00 | 0.00 | 0.00 | 51 | 1004.6 |
| 20260831074245 | 67 | 317 | 1.0 | 5.0 | 0.00 | 0.00 | 0.00 | 51 | 1004.6 |
| 20260831073210 | 67 | 275 | 0.0 | 8.0 | 0.00 | 0.00 | 0.00 | 51 | 1004.4 |
| 20260831072137 | 66 | 328 | 0.0 | 6.0 | 0.00 | 0.00 | 0.00 | 51 | 1004.6 |
| 20260831071127 | 66 | 299 | 0.0 | 0.0 | 0.00 | 0.00 | 0.00 | 51 | 1004.5 |
| 20260831070150 | 67 | 79 | 0.0 | 0.0 | 0.00 | 0.00 | 0.00 | 50 | 1004.5 |